sensor_id;sensor_type;location;lat;lon;timestamp;P1;durP1;ratioP1;P2;durP2;ratioP2
14326;SDS011;7247;53.330;-1.180;2024-03-08T00:00:15;29.43;;;18.17;;
14326;SDS011;7247;53.330;-1.180;2024-03-08T00:02:43;30.67;;;17.40;;
14326;SDS011;7247;53.330;-1.180;2024-03-08T00:05:10;27.07;;;17.53;;
14326;SDS011;7247;53.330;-1.180;2024-03-08T00:07:37;30.03;;;18.47;;
14326;SDS011;7247;53.330;-1.180;2024-03-08T00:10:05;30.63;;;19.10;;
14326;SDS011;7247;53.330;-1.180;2024-03-08T00:12:32;30.13;;;19.63;;
14326;SDS011;7247;53.330;-1.180;2024-03-08T00:14:59;28.93;;;18.87;;
14326;SDS011;7247;53.330;-1.180;2024-03-08T00:17:25;33.10;;;19.20;;
14326;SDS011;7247;53.330;-1.180;2024-03-08T00:19:52;37.47;;;20.43;;
14326;SDS011;7247;53.330;-1.180;2024-03-08T00:22:18;34.93;;;19.57;;
14326;SDS011;7247;53.330;-1.180;2024-03-08T00:24:45;37.90;;;20.80;;
14326;SDS011;7247;53.330;-1.180;2024-03-08T00:27:13;33.43;;;21.10;;
14326;SDS011;7247;53.330;-1.180;2024-03-08T00:29:40;30.77;;;20.03;;
14326;SDS011;7247;53.330;-1.180;2024-03-08T00:32:07;31.50;;;19.97;;
14326;SDS011;7247;53.330;-1.180;2024-03-08T00:34:34;32.27;;;20.50;;
14326;SDS011;7247;53.330;-1.180;2024-03-08T00:37:01;35.33;;;21.03;;
14326;SDS011;7247;53.330;-1.180;2024-03-08T00:39:28;39.27;;;22.40;;
14326;SDS011;7247;53.330;-1.180;2024-03-08T00:41:54;37.10;;;22.37;;
14326;SDS011;7247;53.330;-1.180;2024-03-08T00:44:22;36.53;;;22.13;;
14326;SDS011;7247;53.330;-1.180;2024-03-08T00:46:49;38.47;;;22.40;;
14326;SDS011;7247;53.330;-1.180;2024-03-08T00:49:16;37.53;;;21.87;;
14326;SDS011;7247;53.330;-1.180;2024-03-08T00:51:42;42.03;;;23.33;;
14326;SDS011;7247;53.330;-1.180;2024-03-08T00:54:09;38.53;;;22.87;;
14326;SDS011;7247;53.330;-1.180;2024-03-08T00:56:36;36.70;;;22.90;;
14326;SDS011;7247;53.330;-1.180;2024-03-08T00:59:04;42.37;;;23.27;;
14326;SDS011;7247;53.330;-1.180;2024-03-08T01:01:32;39.50;;;23.40;;
14326;SDS011;7247;53.330;-1.180;2024-03-08T01:03:58;44.07;;;24.83;;
14326;SDS011;7247;53.330;-1.180;2024-03-08T01:06:24;43.53;;;24.67;;
14326;SDS011;7247;53.330;-1.180;2024-03-08T01:08:52;42.40;;;24.50;;
14326;SDS011;7247;53.330;-1.180;2024-03-08T01:11:18;42.70;;;25.07;;
14326;SDS011;7247;53.330;-1.180;2024-03-08T01:13:45;44.67;;;25.07;;
14326;SDS011;7247;53.330;-1.180;2024-03-08T01:16:13;45.00;;;25.83;;
14326;SDS011;7247;53.330;-1.180;2024-03-08T01:18:40;44.77;;;25.40;;
14326;SDS011;7247;53.330;-1.180;2024-03-08T01:21:07;42.23;;;24.77;;
14326;SDS011;7247;53.330;-1.180;2024-03-08T01:23:33;46.37;;;26.00;;
14326;SDS011;7247;53.330;-1.180;2024-03-08T01:26:00;44.77;;;25.43;;
14326;SDS011;7247;53.330;-1.180;2024-03-08T01:28:27;52.10;;;27.07;;
14326;SDS011;7247;53.330;-1.180;2024-03-08T01:30:54;42.90;;;25.67;;
14326;SDS011;7247;53.330;-1.180;2024-03-08T01:33:22;43.50;;;25.67;;
14326;SDS011;7247;53.330;-1.180;2024-03-08T01:35:49;48.77;;;27.10;;
14326;SDS011;7247;53.330;-1.180;2024-03-08T01:38:16;44.17;;;25.70;;
14326;SDS011;7247;53.330;-1.180;2024-03-08T01:40:42;41.23;;;24.97;;
14326;SDS011;7247;53.330;-1.180;2024-03-08T01:43:18;44.43;;;25.60;;
14326;SDS011;7247;53.330;-1.180;2024-03-08T01:45:45;43.60;;;24.37;;
14326;SDS011;7247;53.330;-1.180;2024-03-08T01:48:11;41.97;;;25.47;;
14326;SDS011;7247;53.330;-1.180;2024-03-08T01:50:39;39.57;;;24.23;;
14326;SDS011;7247;53.330;-1.180;2024-03-08T01:53:07;42.67;;;24.87;;
14326;SDS011;7247;53.330;-1.180;2024-03-08T01:55:35;42.03;;;23.47;;
14326;SDS011;7247;53.330;-1.180;2024-03-08T01:58:01;38.63;;;23.83;;
14326;SDS011;7247;53.330;-1.180;2024-03-08T02:00:29;42.47;;;24.60;;
14326;SDS011;7247;53.330;-1.180;2024-03-08T02:02:55;40.63;;;24.27;;
14326;SDS011;7247;53.330;-1.180;2024-03-08T02:05:23;44.23;;;23.93;;
14326;SDS011;7247;53.330;-1.180;2024-03-08T02:07:49;39.93;;;23.53;;
14326;SDS011;7247;53.330;-1.180;2024-03-08T02:10:18;41.00;;;24.13;;
14326;SDS011;7247;53.330;-1.180;2024-03-08T02:12:45;43.37;;;23.80;;
14326;SDS011;7247;53.330;-1.180;2024-03-08T02:15:12;44.83;;;23.30;;
14326;SDS011;7247;53.330;-1.180;2024-03-08T02:17:40;43.10;;;23.43;;
14326;SDS011;7247;53.330;-1.180;2024-03-08T02:20:06;41.27;;;23.77;;
14326;SDS011;7247;53.330;-1.180;2024-03-08T02:22:35;39.63;;;23.33;;
14326;SDS011;7247;53.330;-1.180;2024-03-08T02:25:02;42.97;;;23.47;;
14326;SDS011;7247;53.330;-1.180;2024-03-08T02:27:29;38.43;;;23.27;;
14326;SDS011;7247;53.330;-1.180;2024-03-08T02:29:56;40.63;;;23.57;;
14326;SDS011;7247;53.330;-1.180;2024-03-08T02:32:23;39.80;;;22.77;;
14326;SDS011;7247;53.330;-1.180;2024-03-08T02:34:50;38.83;;;22.23;;
14326;SDS011;7247;53.330;-1.180;2024-03-08T02:37:16;40.10;;;22.23;;
14326;SDS011;7247;53.330;-1.180;2024-03-08T02:39:44;40.37;;;22.70;;
14326;SDS011;7247;53.330;-1.180;2024-03-08T02:42:11;40.30;;;22.30;;
14326;SDS011;7247;53.330;-1.180;2024-03-08T02:44:39;44.07;;;23.73;;
14326;SDS011;7247;53.330;-1.180;2024-03-08T02:47:08;40.00;;;22.57;;
14326;SDS011;7247;53.330;-1.180;2024-03-08T02:49:35;38.53;;;23.77;;
14326;SDS011;7247;53.330;-1.180;2024-03-08T02:52:02;44.27;;;24.43;;
14326;SDS011;7247;53.330;-1.180;2024-03-08T02:54:30;46.00;;;23.10;;
14326;SDS011;7247;53.330;-1.180;2024-03-08T02:56:57;44.00;;;24.03;;
14326;SDS011;7247;53.330;-1.180;2024-03-08T02:59:24;43.50;;;22.33;;
14326;SDS011;7247;53.330;-1.180;2024-03-08T03:01:50;43.30;;;24.53;;
14326;SDS011;7247;53.330;-1.180;2024-03-08T03:04:17;42.23;;;23.87;;
14326;SDS011;7247;53.330;-1.180;2024-03-08T03:06:43;39.80;;;24.37;;
14326;SDS011;7247;53.330;-1.180;2024-03-08T03:09:10;45.13;;;24.87;;
14326;SDS011;7247;53.330;-1.180;2024-03-08T03:11:36;42.90;;;24.43;;
14326;SDS011;7247;53.330;-1.180;2024-03-08T03:14:05;47.17;;;25.37;;
14326;SDS011;7247;53.330;-1.180;2024-03-08T03:16:34;46.07;;;25.30;;
14326;SDS011;7247;53.330;-1.180;2024-03-08T03:19:00;44.37;;;25.37;;
14326;SDS011;7247;53.330;-1.180;2024-03-08T03:21:31;44.93;;;25.33;;
14326;SDS011;7247;53.330;-1.180;2024-03-08T03:24:01;47.43;;;25.93;;
14326;SDS011;7247;53.330;-1.180;2024-03-08T03:26:29;41.97;;;23.93;;
14326;SDS011;7247;53.330;-1.180;2024-03-08T03:28:56;42.13;;;25.77;;
14326;SDS011;7247;53.330;-1.180;2024-03-08T03:31:25;45.23;;;25.67;;
14326;SDS011;7247;53.330;-1.180;2024-03-08T03:33:51;50.20;;;27.30;;
14326;SDS011;7247;53.330;-1.180;2024-03-08T03:36:17;49.13;;;26.87;;
14326;SDS011;7247;53.330;-1.180;2024-03-08T03:38:45;45.50;;;26.53;;
14326;SDS011;7247;53.330;-1.180;2024-03-08T03:41:11;53.13;;;27.90;;
14326;SDS011;7247;53.330;-1.180;2024-03-08T03:43:39;47.13;;;26.13;;
14326;SDS011;7247;53.330;-1.180;2024-03-08T03:46:06;49.87;;;27.37;;
14326;SDS011;7247;53.330;-1.180;2024-03-08T03:48:34;51.33;;;26.60;;
14326;SDS011;7247;53.330;-1.180;2024-03-08T03:51:01;46.17;;;26.30;;
14326;SDS011;7247;53.330;-1.180;2024-03-08T03:53:27;52.07;;;28.13;;
14326;SDS011;7247;53.330;-1.180;2024-03-08T03:55:54;47.90;;;28.13;;
14326;SDS011;7247;53.330;-1.180;2024-03-08T03:58:20;47.80;;;26.37;;
14326;SDS011;7247;53.330;-1.180;2024-03-08T04:00:47;45.50;;;26.57;;
14326;SDS011;7247;53.330;-1.180;2024-03-08T04:03:14;51.63;;;27.20;;
14326;SDS011;7247;53.330;-1.180;2024-03-08T04:05:43;51.67;;;28.17;;
14326;SDS011;7247;53.330;-1.180;2024-03-08T04:08:10;48.13;;;27.17;;
14326;SDS011;7247;53.330;-1.180;2024-03-08T04:10:36;49.63;;;28.73;;
14326;SDS011;7247;53.330;-1.180;2024-03-08T04:13:03;48.53;;;27.90;;
14326;SDS011;7247;53.330;-1.180;2024-03-08T04:15:30;47.87;;;28.20;;
14326;SDS011;7247;53.330;-1.180;2024-03-08T04:17:56;50.47;;;27.03;;
14326;SDS011;7247;53.330;-1.180;2024-03-08T04:20:25;52.97;;;28.97;;
14326;SDS011;7247;53.330;-1.180;2024-03-08T04:22:53;52.57;;;27.67;;
14326;SDS011;7247;53.330;-1.180;2024-03-08T04:25:19;53.63;;;28.50;;
14326;SDS011;7247;53.330;-1.180;2024-03-08T04:27:46;48.40;;;27.43;;
14326;SDS011;7247;53.330;-1.180;2024-03-08T04:30:13;56.77;;;28.83;;
14326;SDS011;7247;53.330;-1.180;2024-03-08T04:32:40;53.30;;;28.83;;
14326;SDS011;7247;53.330;-1.180;2024-03-08T04:35:08;52.57;;;29.47;;
14326;SDS011;7247;53.330;-1.180;2024-03-08T04:37:34;48.47;;;28.63;;
14326;SDS011;7247;53.330;-1.180;2024-03-08T04:40:03;50.60;;;29.67;;
14326;SDS011;7247;53.330;-1.180;2024-03-08T04:42:30;52.10;;;28.37;;
14326;SDS011;7247;53.330;-1.180;2024-03-08T04:44:57;55.30;;;29.50;;
14326;SDS011;7247;53.330;-1.180;2024-03-08T04:47:24;47.33;;;27.90;;
14326;SDS011;7247;53.330;-1.180;2024-03-08T04:49:50;53.47;;;29.63;;
14326;SDS011;7247;53.330;-1.180;2024-03-08T04:52:17;53.93;;;29.77;;
14326;SDS011;7247;53.330;-1.180;2024-03-08T04:54:43;52.23;;;29.53;;
14326;SDS011;7247;53.330;-1.180;2024-03-08T04:57:12;50.63;;;30.00;;
14326;SDS011;7247;53.330;-1.180;2024-03-08T04:59:38;52.10;;;29.93;;
14326;SDS011;7247;53.330;-1.180;2024-03-08T05:02:05;53.70;;;28.70;;
14326;SDS011;7247;53.330;-1.180;2024-03-08T05:04:32;50.57;;;29.40;;
14326;SDS011;7247;53.330;-1.180;2024-03-08T05:06:58;48.50;;;29.20;;
14326;SDS011;7247;53.330;-1.180;2024-03-08T05:09:26;54.23;;;30.43;;
14326;SDS011;7247;53.330;-1.180;2024-03-08T05:11:54;54.93;;;29.90;;
14326;SDS011;7247;53.330;-1.180;2024-03-08T05:14:23;48.43;;;29.10;;
14326;SDS011;7247;53.330;-1.180;2024-03-08T05:16:50;51.30;;;29.40;;
14326;SDS011;7247;53.330;-1.180;2024-03-08T05:19:16;47.23;;;29.23;;
14326;SDS011;7247;53.330;-1.180;2024-03-08T05:21:43;52.47;;;29.90;;
14326;SDS011;7247;53.330;-1.180;2024-03-08T05:24:09;55.73;;;31.00;;
14326;SDS011;7247;53.330;-1.180;2024-03-08T05:26:36;56.57;;;30.43;;
14326;SDS011;7247;53.330;-1.180;2024-03-08T05:29:03;50.73;;;30.30;;
14326;SDS011;7247;53.330;-1.180;2024-03-08T05:31:31;53.37;;;30.07;;
14326;SDS011;7247;53.330;-1.180;2024-03-08T05:34:02;51.40;;;29.37;;
14326;SDS011;7247;53.330;-1.180;2024-03-08T05:36:28;53.40;;;29.97;;
14326;SDS011;7247;53.330;-1.180;2024-03-08T05:38:55;50.93;;;30.40;;
14326;SDS011;7247;53.330;-1.180;2024-03-08T05:41:21;54.13;;;31.67;;
14326;SDS011;7247;53.330;-1.180;2024-03-08T05:43:48;52.77;;;30.37;;
14326;SDS011;7247;53.330;-1.180;2024-03-08T05:46:15;53.07;;;31.53;;
14326;SDS011;7247;53.330;-1.180;2024-03-08T05:48:44;52.50;;;31.20;;
14326;SDS011;7247;53.330;-1.180;2024-03-08T05:51:11;53.93;;;31.30;;
14326;SDS011;7247;53.330;-1.180;2024-03-08T05:53:38;56.33;;;31.73;;
14326;SDS011;7247;53.330;-1.180;2024-03-08T05:56:05;58.73;;;31.63;;
14326;SDS011;7247;53.330;-1.180;2024-03-08T05:58:31;54.97;;;31.60;;
14326;SDS011;7247;53.330;-1.180;2024-03-08T06:00:58;50.57;;;30.33;;
14326;SDS011;7247;53.330;-1.180;2024-03-08T06:03:24;54.33;;;32.73;;
14326;SDS011;7247;53.330;-1.180;2024-03-08T06:05:52;53.47;;;31.27;;
14326;SDS011;7247;53.330;-1.180;2024-03-08T06:08:19;54.90;;;32.07;;
14326;SDS011;7247;53.330;-1.180;2024-03-08T06:10:45;55.87;;;31.77;;
14326;SDS011;7247;53.330;-1.180;2024-03-08T06:13:14;52.83;;;31.27;;
14326;SDS011;7247;53.330;-1.180;2024-03-08T06:15:40;56.43;;;31.93;;
14326;SDS011;7247;53.330;-1.180;2024-03-08T06:18:07;53.07;;;31.67;;
14326;SDS011;7247;53.330;-1.180;2024-03-08T06:20:35;54.30;;;31.17;;
14326;SDS011;7247;53.330;-1.180;2024-03-08T06:23:03;55.47;;;32.67;;
14326;SDS011;7247;53.330;-1.180;2024-03-08T06:25:30;52.37;;;32.33;;
14326;SDS011;7247;53.330;-1.180;2024-03-08T06:27:56;56.80;;;31.90;;
14326;SDS011;7247;53.330;-1.180;2024-03-08T06:30:23;55.03;;;32.43;;
14326;SDS011;7247;53.330;-1.180;2024-03-08T06:32:49;56.20;;;31.50;;
14326;SDS011;7247;53.330;-1.180;2024-03-08T06:35:16;54.83;;;32.67;;
14326;SDS011;7247;53.330;-1.180;2024-03-08T06:37:43;56.43;;;31.87;;
14326;SDS011;7247;53.330;-1.180;2024-03-08T06:40:12;55.50;;;31.47;;
14326;SDS011;7247;53.330;-1.180;2024-03-08T06:42:39;56.90;;;33.93;;
14326;SDS011;7247;53.330;-1.180;2024-03-08T06:45:06;57.90;;;33.37;;
14326;SDS011;7247;53.330;-1.180;2024-03-08T06:47:34;59.83;;;33.33;;
14326;SDS011;7247;53.330;-1.180;2024-03-08T06:50:00;57.47;;;31.97;;
14326;SDS011;7247;53.330;-1.180;2024-03-08T06:52:27;58.90;;;33.63;;
14326;SDS011;7247;53.330;-1.180;2024-03-08T06:54:53;59.93;;;33.03;;
14326;SDS011;7247;53.330;-1.180;2024-03-08T06:57:21;59.97;;;33.90;;
14326;SDS011;7247;53.330;-1.180;2024-03-08T06:59:48;57.70;;;33.57;;
14326;SDS011;7247;53.330;-1.180;2024-03-08T07:02:14;58.07;;;33.60;;
14326;SDS011;7247;53.330;-1.180;2024-03-08T07:04:40;58.73;;;34.73;;
14326;SDS011;7247;53.330;-1.180;2024-03-08T07:07:07;57.47;;;33.80;;
14326;SDS011;7247;53.330;-1.180;2024-03-08T07:09:34;56.40;;;33.63;;
14326;SDS011;7247;53.330;-1.180;2024-03-08T07:12:01;62.10;;;34.90;;
14326;SDS011;7247;53.330;-1.180;2024-03-08T07:14:28;62.17;;;35.67;;
14326;SDS011;7247;53.330;-1.180;2024-03-08T07:16:56;62.87;;;33.77;;
14326;SDS011;7247;53.330;-1.180;2024-03-08T07:19:22;62.57;;;34.37;;
14326;SDS011;7247;53.330;-1.180;2024-03-08T07:21:49;62.03;;;34.70;;
14326;SDS011;7247;53.330;-1.180;2024-03-08T07:24:15;60.63;;;33.30;;
14326;SDS011;7247;53.330;-1.180;2024-03-08T07:26:58;59.50;;;35.00;;
14326;SDS011;7247;53.330;-1.180;2024-03-08T07:29:24;60.17;;;33.57;;
14326;SDS011;7247;53.330;-1.180;2024-03-08T07:31:52;60.47;;;35.10;;
14326;SDS011;7247;53.330;-1.180;2024-03-08T07:34:27;61.07;;;34.03;;
14326;SDS011;7247;53.330;-1.180;2024-03-08T07:36:55;61.43;;;33.70;;
14326;SDS011;7247;53.330;-1.180;2024-03-08T07:39:21;59.13;;;34.30;;
14326;SDS011;7247;53.330;-1.180;2024-03-08T07:41:48;56.60;;;32.07;;
14326;SDS011;7247;53.330;-1.180;2024-03-08T07:44:17;54.20;;;31.47;;
14326;SDS011;7247;53.330;-1.180;2024-03-08T07:46:44;62.20;;;33.00;;
14326;SDS011;7247;53.330;-1.180;2024-03-08T07:49:11;53.90;;;32.30;;
14326;SDS011;7247;53.330;-1.180;2024-03-08T07:51:39;57.23;;;32.37;;
14326;SDS011;7247;53.330;-1.180;2024-03-08T07:54:05;55.00;;;32.77;;
14326;SDS011;7247;53.330;-1.180;2024-03-08T07:56:34;54.13;;;31.43;;
14326;SDS011;7247;53.330;-1.180;2024-03-08T07:59:01;53.30;;;31.90;;
14326;SDS011;7247;53.330;-1.180;2024-03-08T08:01:29;50.23;;;30.73;;
14326;SDS011;7247;53.330;-1.180;2024-03-08T08:03:55;51.63;;;31.50;;
14326;SDS011;7247;53.330;-1.180;2024-03-08T08:06:23;51.13;;;31.57;;
14326;SDS011;7247;53.330;-1.180;2024-03-08T08:08:50;57.23;;;30.47;;
14326;SDS011;7247;53.330;-1.180;2024-03-08T08:11:17;53.47;;;31.87;;
14326;SDS011;7247;53.330;-1.180;2024-03-08T08:13:43;52.73;;;31.43;;
14326;SDS011;7247;53.330;-1.180;2024-03-08T08:16:09;50.97;;;30.13;;
14326;SDS011;7247;53.330;-1.180;2024-03-08T08:18:38;47.63;;;29.40;;
14326;SDS011;7247;53.330;-1.180;2024-03-08T08:21:04;51.13;;;28.50;;
14326;SDS011;7247;53.330;-1.180;2024-03-08T08:23:32;47.93;;;29.40;;
14326;SDS011;7247;53.330;-1.180;2024-03-08T08:25:59;49.00;;;29.47;;
14326;SDS011;7247;53.330;-1.180;2024-03-08T08:28:28;47.47;;;28.80;;
14326;SDS011;7247;53.330;-1.180;2024-03-08T08:30:55;45.83;;;28.57;;
14326;SDS011;7247;53.330;-1.180;2024-03-08T08:33:22;50.03;;;29.03;;
14326;SDS011;7247;53.330;-1.180;2024-03-08T08:35:50;50.50;;;28.83;;
14326;SDS011;7247;53.330;-1.180;2024-03-08T08:38:18;50.50;;;28.83;;
14326;SDS011;7247;53.330;-1.180;2024-03-08T08:40:47;47.87;;;29.23;;
14326;SDS011;7247;53.330;-1.180;2024-03-08T08:43:14;53.87;;;29.27;;
14326;SDS011;7247;53.330;-1.180;2024-03-08T08:45:40;57.43;;;28.47;;
14326;SDS011;7247;53.330;-1.180;2024-03-08T08:48:08;43.90;;;26.37;;
14326;SDS011;7247;53.330;-1.180;2024-03-08T08:50:35;45.43;;;27.73;;
14326;SDS011;7247;53.330;-1.180;2024-03-08T08:53:02;41.63;;;26.40;;
14326;SDS011;7247;53.330;-1.180;2024-03-08T08:55:28;44.77;;;26.27;;
14326;SDS011;7247;53.330;-1.180;2024-03-08T08:57:57;41.27;;;25.37;;
14326;SDS011;7247;53.330;-1.180;2024-03-08T09:00:23;40.77;;;25.17;;
14326;SDS011;7247;53.330;-1.180;2024-03-08T09:02:52;40.97;;;24.97;;
14326;SDS011;7247;53.330;-1.180;2024-03-08T09:05:20;41.10;;;25.00;;
14326;SDS011;7247;53.330;-1.180;2024-03-08T09:07:49;40.47;;;24.33;;
14326;SDS011;7247;53.330;-1.180;2024-03-08T09:10:15;44.50;;;26.07;;
14326;SDS011;7247;53.330;-1.180;2024-03-08T09:12:43;39.43;;;23.93;;
14326;SDS011;7247;53.330;-1.180;2024-03-08T09:15:11;36.73;;;23.57;;
14326;SDS011;7247;53.330;-1.180;2024-03-08T09:17:38;37.93;;;24.97;;
14326;SDS011;7247;53.330;-1.180;2024-03-08T09:20:06;41.47;;;24.23;;
14326;SDS011;7247;53.330;-1.180;2024-03-08T09:22:32;35.37;;;23.60;;
14326;SDS011;7247;53.330;-1.180;2024-03-08T09:24:59;35.63;;;23.60;;
14326;SDS011;7247;53.330;-1.180;2024-03-08T09:27:26;38.03;;;23.50;;
14326;SDS011;7247;53.330;-1.180;2024-03-08T09:29:52;39.73;;;24.20;;
14326;SDS011;7247;53.330;-1.180;2024-03-08T09:32:20;35.60;;;23.33;;
14326;SDS011;7247;53.330;-1.180;2024-03-08T09:34:47;36.80;;;23.50;;
14326;SDS011;7247;53.330;-1.180;2024-03-08T09:37:15;37.07;;;22.93;;
14326;SDS011;7247;53.330;-1.180;2024-03-08T09:39:42;36.20;;;23.13;;
14326;SDS011;7247;53.330;-1.180;2024-03-08T09:42:09;31.40;;;21.80;;
14326;SDS011;7247;53.330;-1.180;2024-03-08T09:44:36;35.37;;;23.17;;
14326;SDS011;7247;53.330;-1.180;2024-03-08T09:47:03;34.60;;;23.10;;
14326;SDS011;7247;53.330;-1.180;2024-03-08T09:49:33;33.57;;;21.63;;
14326;SDS011;7247;53.330;-1.180;2024-03-08T09:51:59;33.57;;;22.73;;
14326;SDS011;7247;53.330;-1.180;2024-03-08T09:54:26;34.80;;;22.63;;
14326;SDS011;7247;53.330;-1.180;2024-03-08T09:56:53;35.50;;;22.37;;
14326;SDS011;7247;53.330;-1.180;2024-03-08T09:59:19;34.00;;;22.60;;
14326;SDS011;7247;53.330;-1.180;2024-03-08T10:02:08;33.43;;;21.80;;
14326;SDS011;7247;53.330;-1.180;2024-03-08T10:04:41;37.53;;;22.60;;
14326;SDS011;7247;53.330;-1.180;2024-03-08T10:07:08;34.37;;;21.90;;
14326;SDS011;7247;53.330;-1.180;2024-03-08T10:09:34;32.00;;;21.63;;
14326;SDS011;7247;53.330;-1.180;2024-03-08T10:12:01;33.23;;;20.57;;
14326;SDS011;7247;53.330;-1.180;2024-03-08T10:14:28;33.63;;;21.27;;
14326;SDS011;7247;53.330;-1.180;2024-03-08T10:16:54;34.57;;;21.77;;
14326;SDS011;7247;53.330;-1.180;2024-03-08T10:19:24;32.03;;;21.17;;
14326;SDS011;7247;53.330;-1.180;2024-03-08T10:21:53;33.40;;;22.17;;
14326;SDS011;7247;53.330;-1.180;2024-03-08T10:24:22;36.33;;;22.00;;
14326;SDS011;7247;53.330;-1.180;2024-03-08T10:26:48;33.50;;;21.67;;
14326;SDS011;7247;53.330;-1.180;2024-03-08T10:29:17;33.30;;;21.63;;
14326;SDS011;7247;53.330;-1.180;2024-03-08T10:31:45;30.70;;;20.20;;
14326;SDS011;7247;53.330;-1.180;2024-03-08T10:34:11;34.67;;;21.10;;
14326;SDS011;7247;53.330;-1.180;2024-03-08T10:36:38;31.00;;;21.57;;
14326;SDS011;7247;53.330;-1.180;2024-03-08T10:39:10;34.40;;;22.17;;
14326;SDS011;7247;53.330;-1.180;2024-03-08T10:41:39;34.50;;;21.03;;
14326;SDS011;7247;53.330;-1.180;2024-03-08T10:44:10;32.47;;;20.87;;
14326;SDS011;7247;53.330;-1.180;2024-03-08T10:46:42;37.83;;;22.00;;
14326;SDS011;7247;53.330;-1.180;2024-03-08T10:49:17;32.97;;;21.37;;
14326;SDS011;7247;53.330;-1.180;2024-03-08T10:51:43;32.03;;;21.63;;
14326;SDS011;7247;53.330;-1.180;2024-03-08T10:54:12;30.93;;;21.17;;
14326;SDS011;7247;53.330;-1.180;2024-03-08T10:56:40;29.67;;;20.97;;
14326;SDS011;7247;53.330;-1.180;2024-03-08T10:59:07;29.27;;;21.07;;
14326;SDS011;7247;53.330;-1.180;2024-03-08T11:01:34;33.03;;;22.43;;
14326;SDS011;7247;53.330;-1.180;2024-03-08T11:04:03;32.90;;;22.50;;
14326;SDS011;7247;53.330;-1.180;2024-03-08T11:06:30;32.63;;;22.13;;
14326;SDS011;7247;53.330;-1.180;2024-03-08T11:08:57;31.97;;;22.00;;
14326;SDS011;7247;53.330;-1.180;2024-03-08T11:11:25;30.23;;;21.33;;
14326;SDS011;7247;53.330;-1.180;2024-03-08T11:13:55;33.13;;;21.67;;
14326;SDS011;7247;53.330;-1.180;2024-03-08T11:16:37;30.37;;;20.90;;
14326;SDS011;7247;53.330;-1.180;2024-03-08T11:19:06;29.50;;;21.60;;
14326;SDS011;7247;53.330;-1.180;2024-03-08T11:21:35;29.73;;;21.37;;
14326;SDS011;7247;53.330;-1.180;2024-03-08T11:24:06;28.67;;;20.87;;
14326;SDS011;7247;53.330;-1.180;2024-03-08T11:26:35;32.67;;;21.63;;
14326;SDS011;7247;53.330;-1.180;2024-03-08T11:31:43;31.07;;;21.33;;
14326;SDS011;7247;53.330;-1.180;2024-03-08T11:34:14;30.93;;;21.70;;
14326;SDS011;7247;53.330;-1.180;2024-03-08T11:36:41;31.80;;;20.37;;
14326;SDS011;7247;53.330;-1.180;2024-03-08T11:39:08;28.47;;;20.33;;
14326;SDS011;7247;53.330;-1.180;2024-03-08T11:41:41;30.40;;;20.93;;
14326;SDS011;7247;53.330;-1.180;2024-03-08T11:44:10;30.57;;;20.03;;
14326;SDS011;7247;53.330;-1.180;2024-03-08T11:46:41;29.33;;;19.83;;
14326;SDS011;7247;53.330;-1.180;2024-03-08T11:49:11;27.30;;;20.30;;
14326;SDS011;7247;53.330;-1.180;2024-03-08T11:51:38;28.07;;;20.60;;
14326;SDS011;7247;53.330;-1.180;2024-03-08T11:54:04;31.30;;;20.47;;
14326;SDS011;7247;53.330;-1.180;2024-03-08T11:56:32;30.03;;;20.80;;
14326;SDS011;7247;53.330;-1.180;2024-03-08T11:59:01;25.10;;;18.90;;
14326;SDS011;7247;53.330;-1.180;2024-03-08T12:01:28;27.37;;;19.27;;
14326;SDS011;7247;53.330;-1.180;2024-03-08T12:03:54;29.93;;;20.50;;
14326;SDS011;7247;53.330;-1.180;2024-03-08T12:06:23;24.13;;;18.47;;
14326;SDS011;7247;53.330;-1.180;2024-03-08T12:08:50;27.13;;;19.20;;
14326;SDS011;7247;53.330;-1.180;2024-03-08T12:11:16;22.17;;;17.80;;
14326;SDS011;7247;53.330;-1.180;2024-03-08T12:13:44;24.57;;;17.83;;
14326;SDS011;7247;53.330;-1.180;2024-03-08T12:16:13;24.37;;;18.00;;
14326;SDS011;7247;53.330;-1.180;2024-03-08T12:18:39;24.73;;;19.30;;
14326;SDS011;7247;53.330;-1.180;2024-03-08T12:21:06;20.97;;;18.40;;
14326;SDS011;7247;53.330;-1.180;2024-03-08T12:23:33;25.60;;;19.20;;
14326;SDS011;7247;53.330;-1.180;2024-03-08T12:26:08;28.07;;;19.60;;
14326;SDS011;7247;53.330;-1.180;2024-03-08T12:28:38;28.13;;;21.03;;
14326;SDS011;7247;53.330;-1.180;2024-03-08T12:31:06;26.87;;;19.50;;
14326;SDS011;7247;53.330;-1.180;2024-03-08T12:33:36;26.47;;;19.27;;
14326;SDS011;7247;53.330;-1.180;2024-03-08T12:36:03;24.33;;;19.60;;
14326;SDS011;7247;53.330;-1.180;2024-03-08T12:38:32;24.80;;;19.10;;
14326;SDS011;7247;53.330;-1.180;2024-03-08T12:41:00;25.10;;;19.27;;
14326;SDS011;7247;53.330;-1.180;2024-03-08T12:43:27;26.53;;;20.77;;
14326;SDS011;7247;53.330;-1.180;2024-03-08T12:45:55;23.97;;;19.60;;
14326;SDS011;7247;53.330;-1.180;2024-03-08T12:48:22;28.37;;;20.40;;
14326;SDS011;7247;53.330;-1.180;2024-03-08T12:50:49;24.10;;;20.60;;
14326;SDS011;7247;53.330;-1.180;2024-03-08T12:53:17;27.30;;;20.17;;
14326;SDS011;7247;53.330;-1.180;2024-03-08T12:55:46;25.27;;;20.27;;
14326;SDS011;7247;53.330;-1.180;2024-03-08T12:58:12;30.43;;;20.37;;
14326;SDS011;7247;53.330;-1.180;2024-03-08T13:00:41;26.97;;;20.27;;
14326;SDS011;7247;53.330;-1.180;2024-03-08T13:03:08;25.47;;;20.60;;
14326;SDS011;7247;53.330;-1.180;2024-03-08T13:05:36;25.20;;;20.43;;
14326;SDS011;7247;53.330;-1.180;2024-03-08T13:08:06;28.83;;;21.23;;
14326;SDS011;7247;53.330;-1.180;2024-03-08T13:10:37;25.33;;;20.70;;
14326;SDS011;7247;53.330;-1.180;2024-03-08T13:13:03;27.37;;;19.57;;
14326;SDS011;7247;53.330;-1.180;2024-03-08T13:15:30;29.40;;;20.77;;
14326;SDS011;7247;53.330;-1.180;2024-03-08T13:17:56;26.23;;;19.97;;
14326;SDS011;7247;53.330;-1.180;2024-03-08T13:20:25;27.93;;;20.30;;
14326;SDS011;7247;53.330;-1.180;2024-03-08T13:22:53;29.10;;;20.70;;
14326;SDS011;7247;53.330;-1.180;2024-03-08T13:25:21;30.20;;;21.07;;
14326;SDS011;7247;53.330;-1.180;2024-03-08T13:27:49;29.73;;;20.40;;
14326;SDS011;7247;53.330;-1.180;2024-03-08T13:30:15;29.87;;;21.27;;
14326;SDS011;7247;53.330;-1.180;2024-03-08T13:32:43;31.63;;;22.17;;
14326;SDS011;7247;53.330;-1.180;2024-03-08T13:35:10;29.50;;;21.27;;
14326;SDS011;7247;53.330;-1.180;2024-03-08T13:37:37;29.30;;;21.53;;
14326;SDS011;7247;53.330;-1.180;2024-03-08T13:40:05;30.80;;;21.87;;
14326;SDS011;7247;53.330;-1.180;2024-03-08T13:42:37;30.63;;;21.43;;
14326;SDS011;7247;53.330;-1.180;2024-03-08T13:45:04;36.73;;;22.63;;
14326;SDS011;7247;53.330;-1.180;2024-03-08T13:47:32;30.87;;;21.90;;
14326;SDS011;7247;53.330;-1.180;2024-03-08T13:49:59;32.53;;;22.57;;
14326;SDS011;7247;53.330;-1.180;2024-03-08T13:52:25;31.90;;;22.40;;
14326;SDS011;7247;53.330;-1.180;2024-03-08T13:54:54;29.83;;;21.37;;
14326;SDS011;7247;53.330;-1.180;2024-03-08T13:57:20;32.20;;;22.70;;
14326;SDS011;7247;53.330;-1.180;2024-03-08T13:59:49;29.87;;;22.20;;
14326;SDS011;7247;53.330;-1.180;2024-03-08T14:02:16;31.80;;;22.17;;
14326;SDS011;7247;53.330;-1.180;2024-03-08T14:04:43;33.80;;;22.90;;
14326;SDS011;7247;53.330;-1.180;2024-03-08T14:07:09;28.90;;;20.67;;
14326;SDS011;7247;53.330;-1.180;2024-03-08T14:09:36;33.27;;;21.70;;
14326;SDS011;7247;53.330;-1.180;2024-03-08T14:12:07;32.53;;;21.47;;
14326;SDS011;7247;53.330;-1.180;2024-03-08T14:14:34;30.43;;;21.57;;
14326;SDS011;7247;53.330;-1.180;2024-03-08T14:17:02;31.83;;;21.77;;
14326;SDS011;7247;53.330;-1.180;2024-03-08T14:19:29;27.30;;;21.20;;
14326;SDS011;7247;53.330;-1.180;2024-03-08T14:21:56;28.90;;;21.70;;
14326;SDS011;7247;53.330;-1.180;2024-03-08T14:24:24;30.73;;;22.87;;